Latest Weather Observations for Nambour

IDQ60901

Issued at 5:55 pm EST Friday 29 August 2014 (issued every 10 minutes, with the page automatically refreshed every 10 minutes)

About weather observations | Map of Brisbane area stations | Latest observations for Brisbane area | Other Formats
Station Details ID: 040988 Name: NAMBOUR DAFF - HILLSIDE Lat: -26.64 Lon: 152.94 Height: 53.24 m
Data from the previous 72 hours. | See also: Recent months at Nambour
Date/Time
EST
Tmp

°C
App
Tmp
°C
Dew
Point
°C
Rel
Hum
%
Delta-T

°C
Wind Press
QNH
hPa
Press
MSL
hPa
Rain
since
9 am
mm
Dir
 
Spd
km/h
Gust
km/h
Spd
kts
Gust
kts
29/05:30pm 16.9 16.8 9.3 61 4.0 CALM 0 2 0 1 1019.9 1019.9 0.0
29/05:00pm 18.0 16.6 9.4 57 4.5 E 7 13 4 7 1019.6 1019.6 0.0
29/04:30pm 18.7 16.7 8.7 52 5.2 ENE 9 15 5 8 1019.4 1019.4 0.0
29/04:00pm 19.3 17.3 8.6 50 5.6 ENE 9 13 5 7 1019.3 1019.3 0.0
29/03:30pm 19.7 17.7 8.7 49 5.8 NE 9 17 5 9 1019.3 1019.3 0.0
29/03:00pm 20.0 17.4 7.7 45 6.3 E 11 19 6 10 1019.2 1019.2 0.0
29/02:30pm 20.2 17.6 7.6 44 6.5 ENE 11 19 6 10 1019.3 1019.3 0.0
29/02:00pm 21.2 18.7 6.7 39 7.4 ENE 9 13 5 7 1019.4 1019.4 0.0
29/01:30pm 20.6 18.2 7.2 42 6.9 E 9 13 5 7 1019.9 1019.9 0.0
29/01:00pm 20.8 19.4 7.4 42 6.9 ENE 4 9 2 5 1020.3 1020.3 0.0
29/12:30pm 20.6 18.9 7.6 43 6.7 SSW 6 9 3 5 1020.8 1020.8 0.0
29/12:00pm 19.7 18.0 7.4 45 6.3 E 6 17 3 9 1021.4 1021.4 0.0
29/11:30am 20.4 18.8 8.1 45 6.4 SSW 6 13 3 7 1021.8 1021.8 0.0
29/11:00am 20.3 19.3 8.9 48 6.0 NW 4 9 2 5 1022.2 1022.2 0.0
29/10:30am 19.1 17.0 8.1 49 5.7 SE 9 20 5 11 1022.7 1022.7 0.0
29/10:00am 18.8 16.5 7.3 47 5.8 SSE 9 17 5 9 1022.9 1022.9 0.0
29/09:30am 18.8 17.0 7.9 49 5.6 ESE 7 17 4 9 1022.9 1022.9 0.0
29/09:00am 18.1 16.3 7.2 49 5.5 S 6 17 3 9 1022.9 1022.9 0.0
29/08:30am 17.4 16.0 7.2 51 5.1 S 4 9 2 5 1022.9 1022.9 0.0
29/08:00am 16.7 15.6 8.4 58 4.2 NE 4 7 2 4 1022.9 1022.9 0.0
29/07:30am 13.9 13.9 9.9 77 2.1 CALM 0 0 0 0 1022.5 1022.5 0.0
29/07:00am 11.3 11.0 8.5 83 1.4 CALM 0 0 0 0 1022.3 1022.3 0.0
29/06:30am 9.3 8.7 7.3 87 0.9 CALM 0 4 0 2 1021.9 1021.9 0.0
29/06:00am 9.2 8.5 6.8 85 1.1 N 0 0 0 0 1021.8 1021.8 0.0
29/05:30am 9.9 8.8 7.0 82 1.4 SW 2 4 1 2 1021.6 1021.6 0.0
29/05:00am 10.0 9.3 7.1 82 1.4 CALM 0 0 0 0 1021.4 1021.4 0.0
29/04:30am 10.7 10.2 7.8 82 1.4 CALM 0 0 0 0 1021.1 1021.1 0.0
29/04:00am 11.6 10.9 6.9 73 2.2 CALM 0 4 0 2 1021.0 1021.0 0.0
29/03:30am 12.1 11.5 7.6 74 2.2 CALM 0 2 0 1 1020.9 1020.9 0.0
29/03:00am 12.6 12.2 8.1 74 2.2 CALM 0 0 0 0 1020.8 1020.8 0.0
29/02:30am 12.9 12.4 7.8 71 2.5 CALM 0 4 0 2 1021.0 1021.0 0.0
29/02:00am 13.3 12.1 8.0 70 2.6 WSW 4 6 2 3 1020.8 1020.8 0.0
29/01:30am 13.8 13.0 8.0 68 2.9 WSW 2 7 1 4 1021.1 1021.1 0.0
29/01:00am 14.5 13.3 8.0 65 3.2 SW 4 7 2 4 1021.0 1021.0 0.0
29/12:30am 14.4 13.2 7.9 65 3.2 SW 4 15 2 8 1021.1 1021.1 0.0
29/12:00am 14.1 13.0 8.3 68 2.9 SW 4 9 2 5 1021.5 1021.5 0.0
 
Date/Time
EST
Tmp

°C
App
Tmp
°C
Dew
Point
°C
Rel
Hum
%
Delta-T

°C
Wind Press
QNH
hPa
Press
MSL
hPa
Rain
since
9 am
mm
Dir
 
Spd
km/h
Gust
km/h
Spd
kts
Gust
kts
28/11:30pm 13.6 12.9 8.4 71 2.6 SW 2 6 1 3 1021.7 1021.7 0.0
28/11:00pm 14.1 13.4 8.5 69 2.8 W 2 4 1 2 1021.9 1021.9 0.0
28/10:30pm 14.6 14.0 8.8 68 2.9 W 2 6 1 3 1021.7 1021.7 0.0
28/10:00pm 15.0 14.3 8.5 65 3.3 ESE 2 7 1 4 1021.7 1021.7 0.0
28/09:30pm 15.1 14.3 8.3 64 3.4 W 2 4 1 2 1021.6 1021.6 0.0
28/09:00pm 15.8 15.0 8.3 61 3.8 W 2 7 1 4 1021.6 1021.6 0.0
28/08:30pm 15.6 15.3 8.8 64 3.5 CALM 0 6 0 3 1021.3 1021.3 0.0
28/08:00pm 14.5 14.7 10.5 77 2.1 CALM 0 2 0 1 1021.0 1021.0 0.0
28/07:30pm 15.2 15.4 10.6 74 2.4 CALM 0 4 0 2 1020.8 1020.8 0.0
28/07:00pm 15.6 15.3 10.2 70 2.8 WSW 2 6 1 3 1020.4 1020.4 0.0
28/06:30pm 15.8 15.6 9.0 64 3.5 CALM 0 2 0 1 1020.0 1020.0 0.0
28/06:00pm 17.0 16.7 8.7 58 4.3 CALM 0 0 0 0 1019.5 1019.5 0.0
28/05:30pm 18.1 17.7 8.4 53 5.0 CALM 0 0 0 0 1019.0 1019.0 0.0
28/05:00pm 19.8 18.6 7.9 46 6.1 SE 4 9 2 5 1018.6 1018.6 0.0
28/04:30pm 20.8 18.9 7.4 42 6.9 ESE 7 20 4 11 1018.3 1018.3 0.0
28/04:00pm 21.1 19.4 8.4 44 6.7 SE 7 15 4 8 1017.7 1017.7 0.0
28/03:30pm 21.7 20.1 7.9 41 7.2 E 6 17 3 9 1016.9 1016.8 0.0
28/03:00pm 21.7 20.1 8.6 43 6.9 ESE 7 24 4 13 1016.8 1016.7 0.0
28/02:30pm 21.8 20.2 8.7 43 6.9 SE 7 19 4 10 1016.6 1016.5 0.0
28/02:00pm 22.0 20.6 9.5 45 6.7 SSE 7 20 4 11 1016.6 1016.5 0.0
28/01:30pm 20.9 19.3 10.1 50 5.8 ESE 9 22 5 12 1016.5 1016.4 0.0
28/01:00pm 21.4 19.9 10.6 50 5.9 ESE 9 19 5 10 1016.3 1016.2 0.0
28/12:30pm 21.6 20.8 11.0 51 5.9 ESE 6 22 3 12 1016.5 1016.4 0.0
28/12:00pm 21.1 19.4 9.7 48 6.1 SSW 9 17 5 9 1016.2 1016.1 0.0
28/11:30am 20.4 18.8 10.2 52 5.5 SW 9 20 5 11 1016.4 1016.3 0.0
28/11:00am 21.8 20.6 11.5 52 5.7 S 9 20 5 11 1016.3 1016.2 0.0
28/10:30am 20.9 19.6 11.3 54 5.3 SSW 9 20 5 11 1016.3 1016.2 0.0
28/10:00am 19.4 18.5 10.7 57 4.7 WSW 6 15 3 8 1016.3 1016.2 0.0
28/09:30am 19.4 18.5 11.2 59 4.5 SSW 7 24 4 13 1015.9 1015.8 0.0
28/09:00am 19.0 17.9 10.8 59 4.4 SSW 7 28 4 15 1015.7 1015.6 2.0
28/08:30am 18.1 16.8 11.2 64 3.8 SW 9 24 5 13 1015.5 1015.4 2.0
28/08:00am 16.7 15.3 10.8 68 3.2 SW 9 19 5 10 1015.3 1015.2 2.0
28/07:30am 15.7 14.1 10.2 70 2.9 WSW 9 19 5 10 1015.3 1015.2 2.0
28/07:00am 15.5 13.7 9.4 67 3.2 WSW 9 24 5 13 1014.9 1014.8 2.0
28/06:30am 14.7 12.8 9.1 69 2.9 WSW 9 17 5 9 1014.8 1014.7 2.0
28/06:00am 14.4 12.4 8.6 68 2.9 WSW 9 20 5 11 1014.3 1014.2 2.0
28/05:30am 14.2 12.7 8.6 69 2.8 SW 6 11 3 6 1014.0 1013.9 2.0
28/05:00am 13.4 12.4 8.7 73 2.4 W 4 17 2 9 1013.9 1013.8 2.0
28/04:30am 13.1 12.4 8.6 74 2.3 SW 2 11 1 6 1013.7 1013.6 2.0
28/04:00am 12.9 12.2 8.6 75 2.2 W 2 7 1 4 1013.8 1013.7 2.0
28/03:30am 13.6 12.9 8.7 72 2.5 SW 2 7 1 4 1013.9 1013.8 2.0
28/03:00am 13.7 12.6 8.5 71 2.6 WSW 4 7 2 4 1013.9 1013.8 2.0
28/02:30am 13.3 12.1 8.2 71 2.5 WSW 4 7 2 4 1014.1 1014.0 2.0
28/02:00am 12.4 11.4 7.3 71 2.5 WSW 2 6 1 3 1014.1 1014.0 2.0
28/01:30am 12.7 11.6 7.0 68 2.8 SSW 2 9 1 5 1014.0 1013.9 2.0
28/01:00am 12.7 11.6 7.0 68 2.8 SSW 2 6 1 3 1014.1 1014.0 2.0
28/12:30am 13.0 11.5 6.8 66 3.0 SW 4 9 2 5 1014.4 1014.3 2.0
28/12:00am 13.5 11.4 6.8 64 3.2 SW 7 17 4 9 1014.2 1014.1 2.0
 
Date/Time
EST
Tmp

°C
App
Tmp
°C
Dew
Point
°C
Rel
Hum
%
Delta-T

°C
Wind Press
QNH
hPa
Press
MSL
hPa
Rain
since
9 am
mm
Dir
 
Spd
km/h
Gust
km/h
Spd
kts
Gust
kts
27/11:30pm 14.1 11.4 7.2 63 3.4 WSW 11 22 6 12 1014.3 1014.2 2.0
27/11:00pm 13.6 12.4 8.2 70 2.7 SW 4 7 2 4 1014.6 1014.5 2.0
27/10:30pm 13.6 12.8 8.2 70 2.7 E 2 9 1 5 1014.7 1014.6 2.0
27/10:00pm 12.3 12.0 10.2 87 1.1 NE 2 9 1 5 1014.7 1014.6 2.0
27/09:30pm 12.2 11.9 10.1 87 1.1 WSW 2 9 1 5 1014.8 1014.7 2.0
27/09:00pm 12.4 11.7 10.0 85 1.2 WNW 4 15 2 8 1015.1 1015.0 2.0
27/08:30pm 12.5 11.5 10.2 86 1.2 W 6 9 3 5 1015.3 1015.2 2.0
27/08:00pm 13.2 13.1 9.6 79 1.8 CALM 0 4 0 2 1015.6 1015.5 2.0
27/07:30pm 12.9 12.4 10.8 87 1.1 WSW 4 7 2 4 1015.6 1015.5 2.0
27/07:00pm 13.3 12.9 11.0 86 1.2 WNW 4 9 2 5 1015.5 1015.4 2.0
27/06:30pm 13.8 14.0 10.4 80 1.8 CALM 0 0 0 0 1015.9 1015.8 1.8
27/06:00pm 14.9 14.4 9.3 69 2.9 SE 2 7 1 4 1015.5 1015.4 1.6
27/05:30pm 15.5 15.1 9.6 68 3.1 NNE 2 6 1 3 1015.3 1015.2 1.4
27/05:00pm 15.9 14.6 9.8 67 3.2 SW 7 13 4 7 1014.1 1014.0 1.4
27/04:30pm 16.7 15.8 9.4 62 3.8 SW 4 9 2 5 1013.9 1013.8 1.4
27/04:00pm 17.8 17.5 11.6 67 3.4 S 4 7 2 4 1013.4 1013.3 1.4
27/03:30pm 15.9 15.2 11.9 77 2.2 SW 7 11 4 6 1013.5 1013.4 1.4
27/03:00pm 16.2 15.1 11.8 75 2.4 WSW 9 19 5 10 1013.9 1013.8 1.0
27/02:30pm 16.6 16.5 12.0 74 2.5 NNW 4 11 2 6 1013.9 1013.8 0.2
27/02:00pm 18.0 16.1 9.1 56 4.7 NW 9 13 5 7 1013.0 1012.9 0.2
27/01:30pm 20.9 20.7 8.9 46 6.4 CALM 0 0 0 0 1012.9 1012.8 0.0
27/01:00pm 21.5 20.5 8.7 44 6.8 NNW 4 7 2 4 1013.1 1013.0 0.0
27/12:30pm 22.3 21.6 8.4 41 7.4 N 2 7 1 4 1013.8 1013.7 0.0
27/12:00pm 22.2 20.7 8.3 41 7.3 SSE 6 9 3 5 1014.3 1014.2 0.0
27/11:30am 21.9 20.5 8.8 43 7.0 WSW 6 9 3 5 1014.9 1014.8 0.0
27/11:00am 22.1 21.1 8.9 43 7.0 NW 4 9 2 5 1015.5 1015.4 0.0
27/10:30am 20.6 19.5 8.6 46 6.3 ESE 4 11 2 6 1016.0 1015.9 0.0
27/10:00am 20.0 18.8 9.6 51 5.5 SSW 6 13 3 7 1016.4 1016.3 0.0
27/09:30am 19.4 18.8 11.7 61 4.3 SE 6 11 3 6 1016.5 1016.4 0.0
27/09:00am 19.1 18.2 11.4 61 4.2 SE 7 11 4 6 1016.4 1016.3 0.0
27/08:30am 19.2 19.1 12.2 64 3.9 NE 4 6 2 3 1016.4 1016.3 0.0
27/08:00am 17.0 17.7 12.3 74 2.6 CALM 0 2 0 1 1016.3 1016.2 0.0
27/07:30am 14.5 15.3 12.5 88 1.1 CALM 0 0 0 0 1015.9 1015.8 0.0
27/07:00am 12.4 12.8 11.1 92 0.7 CALM 0 0 0 0 1015.8 1015.7 0.0
27/06:30am 11.7 11.6 10.8 94 0.5 SW 2 4 1 2 1015.4 1015.3 0.0
27/06:00am 11.7 12.0 10.8 94 0.5 CALM 0 0 0 0 1015.1 1015.0 0.0
27/05:30am 12.0 12.3 10.9 93 0.6 CALM 0 0 0 0 1015.1 1015.0 0.0
27/05:00am 12.2 12.4 10.4 89 0.9 CALM 0 0 0 0 1014.6 1014.5 0.0
27/04:30am 12.7 12.6 10.8 88 1.0 WNW 2 4 1 2 1014.7 1014.6 0.0
27/04:00am 12.9 13.1 10.6 86 1.2 CALM 0 0 0 0 1014.6 1014.5 0.0
27/03:30am 14.0 13.8 10.4 79 1.9 ENE 2 6 1 3 1014.8 1014.7 0.0
27/03:00am 15.4 14.6 11.0 75 2.3 SW 6 11 3 6 1015.0 1014.9 0.0
27/02:30am 15.8 14.9 11.2 74 2.5 WSW 7 15 4 8 1015.5 1015.4 0.0
27/02:00am 15.4 14.6 11.6 78 2.0 WSW 7 13 4 7 1015.9 1015.8 0.0
27/01:30am 13.6 13.4 10.6 82 1.6 WSW 2 4 1 2 1015.7 1015.6 0.0
27/01:00am 15.3 15.2 12.2 82 1.7 SW 4 6 2 3 1016.0 1015.9 0.0
27/12:30am 14.5 15.0 11.5 82 1.6 CALM 0 4 0 2 1016.0 1015.9 0.0
27/12:00am 15.2 15.8 12.0 81 1.7 CALM 0 0 0 0 1016.3 1016.2 0.0
 
Date/Time
EST
Tmp

°C
App
Tmp
°C
Dew
Point
°C
Rel
Hum
%
Delta-T

°C
Wind Press
QNH
hPa
Press
MSL
hPa
Rain
since
9 am
mm
Dir
 
Spd
km/h
Gust
km/h
Spd
kts
Gust
kts
26/11:30pm 16.1 15.7 12.5 79 2.0 WSW 6 9 3 5 1016.7 1016.6 0.0
26/11:00pm 16.1 16.6 12.8 81 1.8 WSW 2 7 1 4 1016.9 1016.8 0.0
26/10:30pm 15.8 15.5 12.7 82 1.7 WSW 6 11 3 6 1016.9 1016.8 0.0
26/10:00pm 16.1 16.0 13.2 83 1.6 SW 6 11 3 6 1016.9 1016.8 0.0
26/09:30pm 15.7 15.4 12.6 82 1.7 SW 6 7 3 4 1017.0 1016.9 0.0
26/09:00pm 15.6 16.4 12.5 82 1.7 CALM 0 4 0 2 1016.9 1016.8 0.0
26/08:30pm 15.9 15.9 12.5 80 1.9 SW 4 7 2 4 1017.2 1017.1 0.0
26/08:00pm 15.9 15.8 12.1 78 2.1 SW 4 6 2 3 1017.1 1017.0 0.0
26/07:30pm 16.0 16.2 11.8 76 2.3 WSW 2 4 1 2 1016.9 1016.8 0.0
26/07:00pm 15.4 15.7 11.0 75 2.3 CALM 0 0 0 0 1016.6 1016.5 0.0
26/06:30pm 16.4 16.8 11.1 71 2.9 CALM 0 0 0 0 1016.3 1016.2 0.0
26/06:00pm 17.2 17.5 10.8 66 3.4 CALM 0 2 0 1 1015.9 1015.8 0.0

Latest Capital City Observations: Canberra | Sydney | Melbourne | Brisbane | Adelaide | Perth | Hobart | Darwin

Other Formats:

Comma delimited format used in spreadsheet applications
http://www.bom.gov.au/fwo/IDQ60901/IDQ60901.95572.axf

JavaScript Object Notation format (JSON) in row-major order
http://www.bom.gov.au/fwo/IDQ60901/IDQ60901.95572.json